Star Mariella — V7KK3 — position and weather

sailwx.info

Track history (hours):
 
Tides and Currents Weather Stations Pressure Air Temp Water Temp Dewpoint Dewpoint Depression Visibility Wind Speed Wind Dir Waves Ship Positions

Star Mariella

Last reported at 2016-Aug-24 09:34 UTC. Time now 2016-Aug-30 17:09 UTC.
Position N 25°27' W 115°47'.

Length 229 m; draft 7.5 m.

Type: Ship. MMSI: 538002632.

Date/timePositionNaut miles runAvg speedWind from/ knotsBaromVisibWave heightAir tempDewpointWater temp
2016-Aug-24 09:34N 25°27' W 115°47'3511.6
2016-Aug-24 06:33N 25°47' W 116°18'4011.8
2016-Aug-24 03:12N 26°10' W 116°54'4311.2
2016-Aug-23 23:23N 26°35' W 117°33'1411.1
2016-Aug-23 22:07N 26°43' W 117°46'1011.0
2016-Aug-23 21:15N 26°49' W 117°55'3111.3
2016-Aug-23 18:33N 27°07' W 118°23'1511.9
2016-Aug-23 17:17N 27°15' W 118°36'1112.6
2016-Aug-23 16:24N 27°22' W 118°47'1012.1
2016-Aug-23 15:33N 27°28' W 118°56'1312.0
2016-Aug-23 14:30N 27°35' W 119°08'2311.8
2016-Aug-23 12:33N 27°48' W 119°29'1211.5
2016-Aug-23 11:33N 27°55' W 119°39'1111.3
2016-Aug-23 10:33N 28°02' W 119°50'1110.9
2016-Aug-23 09:33N 28°08' W 119°60'1111.1
2016-Aug-23 08:33N 28°14' W 120°10'1111.2
2016-Aug-23 07:33N 28°21' W 120°20'1111.1
2016-Aug-23 06:33N 28°27' W 120°30'1111.0
2016-Aug-23 05:33N 28°34' W 120°41'1111.0
2016-Aug-23 04:31N 28°40' W 120°51'1010.9
2016-Aug-23 03:33N 28°46' W 121°01'1110.8
2016-Aug-23 02:33N 28°53' W 121°11'1110.9
2016-Aug-23 01:33N 28°59' W 121°21'1111.0
2016-Aug-23 00:32N 29°06' W 121°32'1110.9
2016-Aug-22 23:33N 29°12' W 121°42'1111.1
2016-Aug-22 22:33N 29°18' W 121°52'1111.2
2016-Aug-22 21:33N 29°25' W 122°03'9111.2
2016-Aug-22 13:28N 30°24' W 123°22'35511.4
2016-Aug-21 06:21N 35°06' W 127°39'12011.0
2016-Aug-20 19:31N 36°40' W 129°10'1210.5
2016-Aug-20 18:20N 36°50' W 129°19'911.1
2016-Aug-20 17:31N 36°57' W 129°26'1110.8
2016-Aug-20 16:31N 37°06' W 129°34'1010.6
2016-Aug-20 15:32N 37°14' W 129°42'1110.8
2016-Aug-20 14:31N 37°23' W 129°51'2411.0
2016-Aug-20 12:20N 37°42' W 130°09'911.2
2016-Aug-20 11:33N 37°49' W 130°16'3610.7
2016-Aug-20 08:14N 38°17' W 130°44'910.9
2016-Aug-20 07:27N 38°23' W 130°51'4310.7
2016-Aug-20 03:28N 38°54' W 131°28'  
Track history (hours):
 
Tides and Currents Weather Stations Pressure Air Temp Water Temp Dewpoint Dewpoint Depression Visibility Wind Speed Wind Dir Waves Ship Positions

Star Mariella

Last reported at 2016-Aug-24 09:34 UTC. Time now 2016-Aug-30 17:09 UTC.
Position N 25°27' W 115°47'.

Length 229 m; draft 7.5 m.

Type: Ship. MMSI: 538002632.

Date/timePositionNaut miles runAvg speedWind from/ knotsBaromVisibWave heightAir tempDewpointWater temp
2016-Aug-24 09:34N 25°27' W 115°47'3511.6
2016-Aug-24 06:33N 25°47' W 116°18'4011.8
2016-Aug-24 03:12N 26°10' W 116°54'4311.2
2016-Aug-23 23:23N 26°35' W 117°33'1411.1
2016-Aug-23 22:07N 26°43' W 117°46'1011.0
2016-Aug-23 21:15N 26°49' W 117°55'3111.3
2016-Aug-23 18:33N 27°07' W 118°23'1511.9
2016-Aug-23 17:17N 27°15' W 118°36'1112.6
2016-Aug-23 16:24N 27°22' W 118°47'1012.1
2016-Aug-23 15:33N 27°28' W 118°56'1312.0
2016-Aug-23 14:30N 27°35' W 119°08'2311.8
2016-Aug-23 12:33N 27°48' W 119°29'1211.5
2016-Aug-23 11:33N 27°55' W 119°39'1111.3
2016-Aug-23 10:33N 28°02' W 119°50'1110.9
2016-Aug-23 09:33N 28°08' W 119°60'1111.1
2016-Aug-23 08:33N 28°14' W 120°10'1111.2
2016-Aug-23 07:33N 28°21' W 120°20'1111.1
2016-Aug-23 06:33N 28°27' W 120°30'1111.0
2016-Aug-23 05:33N 28°34' W 120°41'1111.0
2016-Aug-23 04:31N 28°40' W 120°51'1010.9
2016-Aug-23 03:33N 28°46' W 121°01'1110.8
2016-Aug-23 02:33N 28°53' W 121°11'1110.9
2016-Aug-23 01:33N 28°59' W 121°21'1111.0
2016-Aug-23 00:32N 29°06' W 121°32'1110.9
2016-Aug-22 23:33N 29°12' W 121°42'1111.1
2016-Aug-22 22:33N 29°18' W 121°52'1111.2
2016-Aug-22 21:33N 29°25' W 122°03'9111.2
2016-Aug-22 13:28N 30°24' W 123°22'35511.4
2016-Aug-21 06:21N 35°06' W 127°39'12011.0
2016-Aug-20 19:31N 36°40' W 129°10'1210.5
2016-Aug-20 18:20N 36°50' W 129°19'911.1
2016-Aug-20 17:31N 36°57' W 129°26'1110.8
2016-Aug-20 16:31N 37°06' W 129°34'1010.6
2016-Aug-20 15:32N 37°14' W 129°42'1110.8
2016-Aug-20 14:31N 37°23' W 129°51'2411.0
2016-Aug-20 12:20N 37°42' W 130°09'911.2
2016-Aug-20 11:33N 37°49' W 130°16'3610.7
2016-Aug-20 08:14N 38°17' W 130°44'910.9
2016-Aug-20 07:27N 38°23' W 130°51'4310.7
2016-Aug-20 03:28N 38°54' W 131°28'  

Dump ship's entire track history